createdAt,value
2023-05-22T03:13:38.625Z,14.87
2023-05-22T03:16:41.691Z,14.82
2023-05-22T03:19:44.015Z,14.85
2023-05-22T03:22:46.472Z,14.86
2023-05-22T03:25:48.755Z,14.90
2023-05-22T03:28:51.330Z,14.92
2023-05-22T03:31:54.670Z,14.95
2023-05-22T03:34:58.446Z,14.98
2023-05-22T03:38:00.884Z,15.00
2023-05-22T03:41:03.441Z,15.03
2023-05-22T03:44:06.074Z,15.06
2023-05-22T03:47:08.899Z,15.10
2023-05-22T03:50:11.504Z,15.14
2023-05-22T03:53:14.137Z,15.18
2023-05-22T03:56:16.817Z,15.22
2023-05-22T03:59:19.352Z,15.28
2023-05-22T04:02:22.055Z,15.35
2023-05-22T04:05:26.728Z,15.45
2023-05-22T04:08:29.068Z,15.55
2023-05-22T04:11:32.273Z,15.60
2023-05-22T04:14:34.986Z,15.76
2023-05-22T04:17:41.048Z,15.95
2023-05-22T04:20:43.316Z,16.13
2023-05-22T04:23:46.152Z,16.30
2023-05-22T04:26:49.204Z,16.44
2023-05-22T04:29:51.795Z,16.54
2023-05-22T04:32:54.050Z,16.64
2023-05-22T04:35:57.671Z,16.74
2023-05-22T04:39:04.652Z,16.78
2023-05-22T04:42:08.961Z,16.90
2023-05-22T04:45:11.455Z,17.07
2023-05-22T04:48:15.372Z,17.28
2023-05-22T04:51:17.575Z,17.48
2023-05-22T04:54:20.559Z,17.59
2023-05-22T04:57:25.587Z,17.78
2023-05-22T05:00:28.985Z,17.76
2023-05-22T05:03:32.342Z,17.92
2023-05-22T05:06:35.880Z,18.09
2023-05-22T05:09:38.233Z,18.21
2023-05-22T05:12:41.352Z,18.38
2023-05-22T05:15:43.625Z,18.67
2023-05-22T05:18:46.133Z,19.22
2023-05-22T05:21:49.713Z,19.64
2023-05-22T05:24:52.641Z,19.65
2023-05-22T05:27:54.851Z,19.59
2023-05-22T05:30:58.613Z,19.89
2023-05-22T05:34:01.141Z,20.32
2023-05-22T05:37:05.446Z,20.62
2023-05-22T05:40:08.602Z,21.10
2023-05-22T05:43:11.295Z,21.56
2023-05-22T05:46:14.421Z,21.63
2023-05-22T05:49:17.028Z,21.66
2023-05-22T05:52:19.774Z,21.93
2023-05-22T05:55:23.593Z,22.15
2023-05-22T05:58:26.003Z,22.32
2023-05-22T06:01:32.962Z,22.25
2023-05-22T06:04:36.735Z,22.18
2023-05-22T06:07:40.086Z,22.10
2023-05-22T06:10:55.153Z,21.38
2023-05-22T06:14:08.802Z,21.33
2023-05-22T06:17:12.447Z,21.87
2023-05-22T06:20:15.594Z,22.44
2023-05-22T06:23:18.042Z,22.55
2023-05-22T06:26:22.342Z,22.24
2023-05-22T06:29:26.288Z,22.14
2023-05-22T06:32:32.157Z,21.91
2023-05-22T06:35:34.886Z,21.72
2023-05-22T06:38:38.058Z,21.30
2023-05-22T06:41:41.383Z,21.72
2023-05-22T06:44:44.653Z,22.26
2023-05-22T06:47:47.235Z,22.83
2023-05-22T06:50:50.044Z,23.53
2023-05-22T06:53:52.854Z,23.98
2023-05-22T06:56:56.216Z,24.71
2023-05-22T07:00:01.099Z,24.54
2023-05-22T07:03:06.773Z,24.77
2023-05-22T07:06:09.622Z,24.14
2023-05-22T07:09:12.684Z,23.72
2023-05-22T07:12:15.408Z,23.14
2023-05-22T07:15:17.794Z,22.99
2023-05-22T07:18:21.172Z,24.22
2023-05-22T07:21:26.418Z,24.60
2023-05-22T07:24:30.833Z,24.32
2023-05-22T07:27:34.162Z,23.57
2023-05-22T07:30:38.602Z,23.01
2023-05-22T07:33:41.551Z,23.33
2023-05-22T07:36:45.427Z,23.90
2023-05-22T07:39:47.653Z,23.85
2023-05-22T07:42:50.652Z,23.36
2023-05-22T07:45:54.139Z,22.95
2023-05-22T07:48:58.419Z,23.15
2023-05-22T07:52:00.861Z,23.51
2023-05-22T07:55:04.750Z,23.86
2023-05-22T07:58:08.481Z,23.53
2023-05-22T08:01:11.649Z,23.17
2023-05-22T08:04:14.427Z,23.12
2023-05-22T08:07:17.277Z,23.23
2023-05-22T08:10:20.049Z,23.13
2023-05-22T08:13:22.447Z,23.66
2023-05-22T08:16:25.122Z,23.91
2023-05-22T08:19:27.458Z,23.67
2023-05-22T08:22:31.162Z,23.90
2023-05-22T08:25:33.558Z,24.60
2023-05-22T08:28:36.819Z,24.84
2023-05-22T08:31:39.274Z,25.84
2023-05-22T08:34:42.137Z,26.23
2023-05-22T08:37:44.567Z,25.89
2023-05-22T08:40:49.745Z,24.49
2023-05-22T08:43:52.021Z,25.26
2023-05-22T08:46:56.632Z,25.24
2023-05-22T08:50:00.173Z,24.86
2023-05-22T08:53:03.573Z,26.29
2023-05-22T08:56:07.026Z,27.01
2023-05-22T08:59:10.853Z,25.96
2023-05-22T09:02:13.591Z,25.97
2023-05-22T09:05:19.579Z,25.77
2023-05-22T09:08:21.873Z,27.08
2023-05-22T09:11:24.793Z,27.94
2023-05-22T09:14:27.296Z,28.92
2023-05-22T09:17:29.810Z,27.55
2023-05-22T09:20:39.212Z,27.27
2023-05-22T09:23:42.018Z,28.73
2023-05-22T09:26:44.283Z,30.27
2023-05-22T09:29:53.516Z,30.41
2023-05-22T09:32:57.114Z,31.64
2023-05-22T09:36:00.169Z,32.05
2023-05-22T09:39:04.369Z,33.75
2023-05-22T09:42:08.946Z,33.02
2023-05-22T09:45:11.548Z,31.14
2023-05-22T09:48:17.583Z,28.98
2023-05-22T09:51:23.789Z,27.91
2023-05-22T09:54:27.692Z,32.30
2023-05-22T09:57:33.723Z,32.12
2023-05-22T10:00:36.817Z,33.20
2023-05-22T10:03:40.914Z,32.92
2023-05-22T10:06:47.251Z,34.80
2023-05-22T10:09:56.964Z,36.61
2023-05-22T10:13:04.898Z,37.86
2023-05-22T10:16:08.177Z,40.20
2023-05-22T10:19:12.192Z,41.22
2023-05-22T10:22:20.711Z,35.28
2023-05-22T10:25:23.477Z,31.73
2023-05-22T10:28:30.907Z,31.61
2023-05-22T10:31:44.342Z,35.32
2023-05-22T10:34:56.356Z,40.41
2023-05-22T10:38:13.889Z,42.96
2023-05-22T10:41:17.128Z,42.96
2023-05-22T10:44:19.417Z,44.53
2023-05-22T10:47:21.939Z,44.23
2023-05-22T10:50:24.400Z,44.71
2023-05-22T10:53:31.308Z,44.80
2023-05-22T10:56:35.386Z,44.62
2023-05-22T10:59:38.127Z,44.28
2023-05-22T11:02:45.558Z,43.54
2023-05-22T11:05:53.829Z,43.50
2023-05-22T11:08:57.539Z,42.25
2023-05-22T11:12:13.488Z,42.78
2023-05-22T11:15:16.008Z,41.25
2023-05-22T11:18:18.561Z,39.66
2023-05-22T11:21:22.333Z,35.44
2023-05-22T11:24:24.881Z,32.77
2023-05-22T11:27:27.498Z,31.42
2023-05-22T11:30:32.800Z,30.79
2023-05-22T11:33:35.129Z,30.82
2023-05-22T11:36:38.509Z,29.76
2023-05-22T11:39:40.754Z,29.77
2023-05-22T11:42:43.654Z,28.74
2023-05-22T11:45:46.004Z,28.53
2023-05-22T11:48:48.567Z,28.74
2023-05-22T11:51:51.796Z,29.27
2023-05-22T11:54:54.398Z,28.66
2023-05-22T11:57:56.727Z,28.94
2023-05-22T12:01:02.084Z,29.05
2023-05-22T12:04:05.305Z,29.15
2023-05-22T12:07:08.859Z,29.14
2023-05-22T12:10:11.563Z,28.80
2023-05-22T12:13:13.818Z,28.42
2023-05-22T12:16:25.177Z,28.99
2023-05-22T12:19:27.949Z,28.89
2023-05-22T12:22:30.488Z,28.52
2023-05-22T12:25:39.249Z,28.69
2023-05-22T12:28:41.698Z,29.05
2023-05-22T12:31:46.470Z,28.61
2023-05-22T12:34:50.354Z,28.33
2023-05-22T12:37:52.667Z,28.33
2023-05-22T12:40:56.538Z,28.39
2023-05-22T12:43:58.877Z,28.50
2023-05-22T12:47:01.416Z,28.30
2023-05-22T12:50:03.815Z,28.39
2023-05-22T12:53:06.426Z,28.44
2023-05-22T12:56:08.622Z,28.30
2023-05-22T12:59:11.020Z,27.64
2023-05-22T13:02:13.471Z,27.26
2023-05-22T13:05:16.274Z,26.83
2023-05-22T13:08:18.605Z,26.58
2023-05-22T13:11:23.419Z,26.50
2023-05-22T13:14:25.683Z,26.32
2023-05-22T13:17:28.680Z,26.66
2023-05-22T13:20:30.896Z,26.48
2023-05-22T13:23:33.362Z,26.94
2023-05-22T13:26:35.522Z,26.87
2023-05-22T13:29:38.299Z,27.12
2023-05-22T13:32:40.796Z,27.39
2023-05-22T13:35:43.346Z,27.50
2023-05-22T13:38:45.518Z,27.43
2023-05-22T13:41:48.228Z,27.44
2023-05-22T13:44:50.461Z,27.59
2023-05-22T13:47:53.348Z,27.44
2023-05-22T13:50:55.669Z,27.49
2023-05-22T13:53:58.218Z,27.51
2023-05-22T13:57:02.463Z,27.64
2023-05-22T14:00:05.505Z,27.23
2023-05-22T14:03:11.439Z,26.92
2023-05-22T14:06:13.833Z,26.67
2023-05-22T14:09:16.680Z,26.28
2023-05-22T14:12:18.945Z,26.19
2023-05-22T14:15:21.726Z,26.43
2023-05-22T14:18:24.060Z,26.72
2023-05-22T14:21:27.178Z,26.63
2023-05-22T14:24:29.486Z,26.17
2023-05-22T14:27:31.987Z,26.10
2023-05-22T14:30:34.288Z,26.07
2023-05-22T14:33:37.049Z,25.90
2023-05-22T14:36:39.215Z,25.63
2023-05-22T14:39:41.650Z,25.49
2023-05-22T14:42:44.612Z,25.38
2023-05-22T14:45:47.057Z,25.43
2023-05-22T14:48:49.319Z,25.20
2023-05-22T14:51:52.888Z,25.15
2023-05-22T14:54:55.088Z,25.13
2023-05-22T14:57:57.632Z,24.99
2023-05-22T15:00:59.844Z,24.85
2023-05-22T15:04:02.338Z,24.88
2023-05-22T15:07:05.084Z,24.61
2023-05-22T15:10:08.286Z,24.78
2023-05-22T15:13:11.689Z,24.57
2023-05-22T15:16:14.175Z,24.87
2023-05-22T15:19:16.435Z,24.96
2023-05-22T15:22:20.155Z,24.94
